Time;durP1;ratioP1;P1;durP2;ratioP2;P2;SDS_P1;SDS_P2;PMS_P1;PMS_P2;Temp;Humidity;BMP_temperature;BMP_pressure;BME280_temperature;BME280_humidity;BME280_pressure;Samples;Min_cycle;Max_cycle;Signal;HPM_P1;HPM_P2
2022/08/23 00:01:29;;;;;;;11.05;2.65;;;;;;;17.99;92.96;101604.69;5014699;28;20208;-51
2022/08/23 00:03:57;;;;;;;6.88;2.28;;;;;;;18.00;93.12;101603.75;5012664;28;20232;-50
2022/08/23 00:06:23;;;;;;;6.07;2.38;;;;;;;17.91;93.28;101590.72;5012906;28;20182;-52
2022/08/23 00:08:51;;;;;;;11.55;2.50;;;;;;;17.89;93.44;101587.22;5014563;28;20183;-50
2022/08/23 00:11:27;;;;;;;6.38;2.20;;;;;;;17.88;93.52;101589.03;5017049;28;20671;-50
2022/08/23 00:13:53;;;;;;;8.30;2.00;;;;;;;17.84;93.91;101592.91;5017623;28;20224;-51
2022/08/23 00:16:19;;;;;;;7.50;2.60;;;;;;;17.79;93.99;101600.38;5021047;28;20171;-51
2022/08/23 00:18:44;;;;;;;7.82;2.78;;;;;;;17.71;94.43;101589.97;5022354;28;20208;-50
2022/08/23 00:21:12;;;;;;;4.53;2.72;;;;;;;17.73;94.82;101602.56;5024515;28;20210;-50
2022/08/23 00:23:38;;;;;;;5.65;2.30;;;;;;;17.68;94.84;101598.25;5026550;28;20208;-51
2022/08/23 00:26:03;;;;;;;9.30;2.75;;;;;;;17.64;95.16;101590.38;5014493;28;20200;-51
2022/08/23 00:28:30;;;;;;;4.85;2.25;;;;;;;17.63;95.18;101597.66;5012260;28;20196;-51
2022/08/23 00:30:56;;;;;;;6.60;2.42;;;;;;;17.66;95.24;101602.03;5011838;28;20216;-51
2022/08/23 00:33:22;;;;;;;9.48;3.20;;;;;;;17.61;95.16;101602.28;5014575;28;20192;-51
2022/08/23 00:35:48;;;;;;;5.72;2.60;;;;;;;17.58;95.59;101604.28;5015026;28;20708;-51
2022/08/23 00:38:14;;;;;;;5.35;2.35;;;;;;;17.57;95.93;101592.56;5028270;28;20187;-52
2022/08/23 00:40:52;;;;;;;7.30;2.63;;;;;;;17.51;96.03;101595.59;5019695;28;20186;-50
2022/08/23 00:49:24;;;;;;;6.03;1.95;;;;;;;17.43;96.58;101587.91;5014129;28;20275;-51
2022/08/23 00:52:17;;;;;;;4.28;2.33;;;;;;;17.40;96.80;101592.63;5012798;28;20299;-50
2022/08/23 00:54:46;;;;;;;6.85;2.78;;;;;;;17.40;97.19;101592.63;5023839;28;20224;-50
2022/08/23 00:57:15;;;;;;;5.72;2.38;;;;;;;17.38;97.24;101592.72;5011320;28;20185;-52
2022/08/23 00:59:40;;;;;;;8.10;2.30;;;;;;;17.28;97.60;101592.34;5014405;28;20267;-50
2022/08/23 01:02:07;;;;;;;7.47;2.65;;;;;;;17.26;97.67;101599.66;5015878;28;20238;-51
2022/08/23 01:04:41;;;;;;;6.45;2.47;;;;;;;17.24;98.06;101598.00;5022425;28;20592;-51
2022/08/23 01:07:34;;;;;;;7.32;2.50;;;;;;;17.32;98.26;101590.34;5020299;28;20200;-50
2022/08/23 01:10:08;;;;;;;8.02;2.67;;;;;;;17.28;98.12;101602.28;5022710;28;20715;-51
2022/08/23 01:12:42;;;;;;;8.02;2.60;;;;;;;17.24;98.38;101595.28;5025398;28;20713;-51
2022/08/23 01:15:25;;;;;;;8.98;2.58;;;;;;;17.25;98.16;101599.75;5013950;28;20215;-51
2022/08/23 01:18:01;;;;;;;8.98;2.67;;;;;;;17.24;98.48;101598.88;5008666;28;20196;-49
2022/08/23 01:20:34;;;;;;;9.15;2.65;;;;;;;17.20;98.62;101589.16;5025657;28;20181;-50
2022/08/23 01:23:16;;;;;;;5.00;2.65;;;;;;;17.13;98.93;101598.56;5013572;28;20180;-51
2022/08/23 01:25:42;;;;;;;6.70;2.55;;;;;;;17.11;99.09;101589.66;5025146;28;20237;-51
2022/08/23 01:28:08;;;;;;;6.32;2.80;;;;;;;17.14;99.21;101583.19;5017950;28;20192;-51
2022/08/23 01:30:35;;;;;;;7.43;2.45;;;;;;;17.20;99.10;101585.56;5019173;28;20205;-50
2022/08/23 01:33:04;;;;;;;10.23;2.80;;;;;;;17.17;99.10;101597.47;5019219;28;20687;-51
2022/08/23 01:35:40;;;;;;;7.60;2.78;;;;;;;17.19;99.08;101587.41;5016314;28;20223;-53
2022/08/23 01:38:07;;;;;;;6.75;2.50;;;;;;;17.20;98.79;101591.00;5013550;28;20254;-51
2022/08/23 01:40:34;;;;;;;4.32;2.47;;;;;;;17.21;98.47;101601.75;5011030;28;20223;-49
2022/08/23 01:43:00;;;;;;;9.68;2.72;;;;;;;17.17;98.45;101602.88;5009633;28;20188;-49
2022/08/23 01:45:27;;;;;;;6.65;2.53;;;;;;;17.16;98.84;101611.94;5010754;28;20214;-51
2022/08/23 01:47:52;;;;;;;5.20;2.58;;;;;;;17.15;98.79;101602.09;5012746;28;20615;-50
2022/08/23 01:50:19;;;;;;;8.55;2.58;;;;;;;17.14;98.56;101600.31;5013900;28;20208;-49
2022/08/23 01:52:44;;;;;;;11.35;3.22;;;;;;;17.12;98.88;101602.25;5016323;28;20540;-47
2022/08/23 01:55:10;;;;;;;6.22;2.45;;;;;;;17.08;99.27;101606.06;5017981;28;20213;-52
2022/08/23 01:57:36;;;;;;;6.63;3.15;;;;;;;17.09;99.29;101605.97;5016579;28;20709;-49
2022/08/23 02:00:07;;;;;;;6.68;2.70;;;;;;;17.02;99.35;101598.28;5025884;28;20179;-51
2022/08/23 02:02:39;;;;;;;6.60;2.58;;;;;;;17.06;99.23;101602.56;5018629;28;20569;-51
2022/08/23 02:05:06;;;;;;;6.13;2.50;;;;;;;17.01;99.37;101604.63;5010628;28;20304;-49
2022/08/23 02:07:32;;;;;;;9.48;2.83;;;;;;;17.00;99.61;101602.91;4988911;28;20180;-49
2022/08/23 02:09:58;;;;;;;7.47;2.90;;;;;;;17.01;99.41;101602.81;5014754;28;20200;-47
2022/08/23 02:12:24;;;;;;;7.10;2.55;;;;;;;17.00;99.60;101601.06;5016035;28;20917;-50
2022/08/23 02:14:58;;;;;;;6.18;3.08;;;;;;;17.01;99.69;101602.81;5026477;28;20724;-49
2022/08/23 02:17:25;;;;;;;6.25;2.67;;;;;;;17.00;99.73;101597.47;5019612;28;20181;-51
2022/08/23 02:19:50;;;;;;;8.45;3.28;;;;;;;16.92;99.87;101606.00;5021719;28;20678;-50
2022/08/23 02:22:16;;;;;;;6.45;2.60;;;;;;;16.93;99.92;101601.47;5040256;28;20275;-48
2022/08/23 02:24:44;;;;;;;6.75;2.70;;;;;;;16.92;100.00;101599.72;5026961;28;20204;-48
2022/08/23 02:27:11;;;;;;;7.40;3.10;;;;;;;16.93;99.85;101605.06;5027005;28;20231;-49
2022/08/23 02:29:39;;;;;;;7.18;2.95;;;;;;;16.88;100.00;101602.59;5021328;28;20299;-48
2022/08/23 02:32:05;;;;;;;8.10;2.50;;;;;;;16.85;100.00;101600.03;5030139;28;20188;-50
2022/08/23 02:34:31;;;;;;;9.60;3.08;;;;;;;16.84;100.00;101592.00;5015208;28;20247;-48
2022/08/23 02:36:57;;;;;;;5.40;2.58;;;;;;;16.79;100.00;101591.31;5016927;28;20223;-48
2022/08/23 02:39:24;;;;;;;6.80;3.30;;;;;;;16.92;100.00;101597.00;5016837;28;20806;-49
2022/08/23 02:41:50;;;;;;;8.32;2.60;;;;;;;16.86;100.00;101603.63;5019230;28;20326;-50
2022/08/23 02:44:18;;;;;;;7.40;2.75;;;;;;;16.86;100.00;101600.91;5020547;28;20374;-49
2022/08/23 02:46:45;;;;;;;4.95;2.70;;;;;;;16.87;100.00;101608.06;5010273;28;20330;-50
2022/08/23 02:49:11;;;;;;;5.32;2.72;;;;;;;16.91;100.00;101592.56;5021302;28;20598;-51
2022/08/23 02:51:37;;;;;;;6.50;3.15;;;;;;;16.89;100.00;101595.34;5030387;28;20243;-48
2022/08/23 02:54:03;;;;;;;4.88;2.50;;;;;;;16.94;100.00;101593.25;5022642;28;20296;-47
2022/08/23 02:56:29;;;;;;;7.30;2.75;;;;;;;16.96;100.00;101595.88;5030320;28;20655;-47
2022/08/23 02:58:55;;;;;;;5.78;2.30;;;;;;;17.02;99.50;101604.56;5029086;28;20192;-47
2022/08/23 03:01:25;;;;;;;6.88;2.88;;;;;;;16.94;99.49;101605.91;5024257;28;20190;-48
2022/08/23 03:03:53;;;;;;;7.60;3.25;;;;;;;16.95;99.50;101604.97;5016253;28;20640;-47
2022/08/23 03:06:19;;;;;;;5.35;2.80;;;;;;;16.95;99.53;101603.13;5028326;28;20515;-47
2022/08/23 03:08:45;;;;;;;5.07;2.58;;;;;;;16.98;99.76;101597.56;5010636;28;20880;-49
2022/08/23 03:11:17;;;;;;;9.25;2.83;;;;;;;16.93;99.89;101601.47;5021611;28;20207;-49
2022/08/23 03:13:44;;;;;;;8.10;3.03;;;;;;;16.93;99.96;101604.19;5027145;28;20299;-47
2022/08/23 03:16:11;;;;;;;7.78;2.75;;;;;;;16.91;100.00;101598.84;5032001;28;20223;-47
2022/08/23 03:18:44;;;;;;;6.63;2.60;;;;;;;16.89;100.00;101611.56;5012053;28;20656;-45
2022/08/23 03:21:12;;;;;;;5.20;2.75;;;;;;;16.89;100.00;101607.03;5021750;28;20188;-46
2022/08/23 03:23:39;;;;;;;8.88;3.00;;;;;;;16.91;100.00;101601.53;5027613;28;20682;-46
2022/08/23 03:26:08;;;;;;;8.60;3.08;;;;;;;16.95;100.00;101608.56;5013094;28;20195;-44
2022/08/23 03:28:35;;;;;;;7.38;3.17;;;;;;;16.92;100.00;101615.94;5023633;28;20196;-45
2022/08/23 03:31:02;;;;;;;6.95;2.60;;;;;;;16.92;100.00;101621.38;5031602;28;20343;-43
2022/08/23 03:33:30;;;;;;;11.30;3.10;;;;;;;16.99;100.00;101615.56;5052333;28;20196;-45
2022/08/23 03:36:00;;;;;;;6.28;2.75;;;;;;;17.00;99.64;101613.72;5022545;28;20176;-42
2022/08/23 03:38:26;;;;;;;6.55;3.00;;;;;;;16.95;99.74;101621.22;5011547;28;20212;-43
2022/08/23 03:40:53;;;;;;;8.98;3.15;;;;;;;17.05;99.98;101634.19;5017328;28;20184;-44
2022/08/23 03:43:21;;;;;;;10.30;3.45;;;;;;;17.17;99.22;101635.38;5027361;28;20606;-40
2022/08/23 03:45:46;;;;;;;7.63;3.22;;;;;;;17.03;99.23;101641.53;5020984;28;20188;-44
2022/08/23 03:48:15;;;;;;;5.72;2.60;;;;;;;17.04;99.21;101624.31;5028053;28;20194;-42
2022/08/23 03:50:41;;;;;;;8.20;2.92;;;;;;;17.03;99.44;101632.50;5022973;28;20265;-43
2022/08/23 03:53:07;;;;;;;6.65;3.10;;;;;;;17.00;99.73;101625.41;5018331;28;20184;-42
2022/08/23 03:55:33;;;;;;;13.20;3.50;;;;;;;17.01;99.70;101629.00;5020185;28;20200;-42
2022/08/23 03:57:59;;;;;;;5.50;2.97;;;;;;;16.93;99.95;101625.84;5025720;28;20192;-41
2022/08/23 04:00:24;;;;;;;8.30;3.33;;;;;;;16.92;100.00;101627.66;5029858;28;20181;-41
2022/08/23 04:02:52;;;;;;;9.70;3.25;;;;;;;16.92;100.00;101633.06;5029517;28;20184;-45
2022/08/23 04:05:19;;;;;;;9.82;3.67;;;;;;;16.89;100.00;101636.81;5021326;28;20208;-43
2022/08/23 04:08:08;;;;;;;5.38;2.90;;;;;;;17.00;100.00;101638.09;5018386;28;20239;-39
2022/08/23 04:10:34;;;;;;;6.63;3.25;;;;;;;16.98;99.92;101637.28;5011872;28;20209;-46
2022/08/23 04:12:59;;;;;;;5.35;3.15;;;;;;;16.93;99.75;101642.94;5027124;28;20247;-45
2022/08/23 04:15:25;;;;;;;7.82;2.95;;;;;;;16.94;99.94;101638.41;5013099;28;20231;-49
2022/08/23 04:17:50;;;;;;;7.93;2.85;;;;;;;16.98;99.80;101649.00;5016578;28;20191;-49
2022/08/23 04:20:16;;;;;;;8.18;3.53;;;;;;;16.98;99.73;101645.41;5007562;28;20180;-48
2022/08/23 04:22:55;;;;;;;6.28;3.00;;;;;;;16.96;99.50;101648.19;5018926;28;20180;-46
2022/08/23 04:25:24;;;;;;;5.80;2.83;;;;;;;16.99;99.51;101649.84;5022351;28;20219;-47
2022/08/23 04:27:49;;;;;;;6.38;3.33;;;;;;;16.94;99.74;101646.53;5022815;28;20202;-46
2022/08/23 04:30:18;;;;;;;6.20;3.40;;;;;;;16.95;99.60;101645.59;5020531;28;20680;-47
2022/08/23 04:32:44;;;;;;;7.00;2.70;;;;;;;17.01;99.62;101642.53;5024005;28;20187;-45
2022/08/23 04:35:10;;;;;;;8.10;3.20;;;;;;;16.99;99.54;101655.28;5010218;28;20208;-48
2022/08/23 04:37:36;;;;;;;6.32;3.13;;;;;;;16.96;99.33;101648.19;5010689;28;20185;-47
2022/08/23 04:42:47;;;;;;;6.90;2.85;;;;;;;17.01;98.95;101654.25;4985601;28;20185;-47
2022/08/23 04:45:13;;;;;;;6.25;3.35;;;;;;;17.00;98.90;101657.91;4999128;28;20212;-46
2022/08/23 04:47:43;;;;;;;5.97;3.33;;;;;;;17.02;98.89;101657.84;5018463;28;20749;-46
2022/08/23 04:50:09;;;;;;;5.38;3.08;;;;;;;17.13;98.63;101660.84;5019862;28;20207;-46
2022/08/23 04:52:46;;;;;;;6.43;2.92;;;;;;;17.22;98.25;101663.06;5017392;28;20188;-46
2022/08/23 04:55:13;;;;;;;5.45;3.03;;;;;;;17.40;97.22;101657.63;5015527;28;20200;-46
2022/08/23 04:57:50;;;;;;;5.75;3.20;;;;;;;17.46;96.65;101657.31;5027420;28;20203;-47
2022/08/23 05:00:20;;;;;;;7.03;3.15;;;;;;;17.74;95.24;101658.53;5009382;28;20654;-48
2022/08/23 05:02:51;;;;;;;6.30;3.05;;;;;;;17.84;94.42;101655.25;5024458;28;20545;-46
2022/08/23 05:05:19;;;;;;;10.02;2.90;;;;;;;17.92;93.35;101663.81;5013050;28;20219;-46
2022/08/23 05:07:45;;;;;;;5.63;3.20;;;;;;;18.00;92.59;101659.81;5014980;28;20195;-44
2022/08/23 05:10:14;;;;;;;8.15;3.47;;;;;;;18.06;91.62;101664.88;5016083;28;20203;-45
2022/08/23 05:12:43;;;;;;;7.90;3.28;;;;;;;18.09;91.26;101664.72;5018856;28;20210;-46
2022/08/23 05:15:09;;;;;;;7.82;2.85;;;;;;;17.98;91.39;101665.31;5019126;28;20200;-47
2022/08/23 05:17:38;;;;;;;7.63;3.00;;;;;;;18.12;91.18;101665.41;5020177;28;20192;-44
2022/08/23 05:20:06;;;;;;;6.97;2.60;;;;;;;18.22;90.45;101667.63;5028550;28;20190;-47
2022/08/23 05:22:34;;;;;;;5.85;2.83;;;;;;;18.32;90.04;101676.97;5040149;28;20200;-46
2022/08/23 05:25:19;;;;;;;6.88;2.50;;;;;;;18.26;89.00;101677.34;5011256;28;20299;-47
2022/08/23 05:27:45;;;;;;;5.50;2.80;;;;;;;18.38;89.03;101679.31;5010927;28;20184;-47
2022/08/23 05:30:12;;;;;;;9.77;3.20;;;;;;;18.39;88.81;101683.81;5011897;28;20215;-46
2022/08/23 05:32:38;;;;;;;6.07;2.30;;;;;;;18.69;88.51;101688.41;5026375;28;20192;-48
2022/08/23 05:35:05;;;;;;;5.38;2.83;;;;;;;18.66;87.76;101688.59;5014193;28;20290;-47
2022/08/23 05:37:33;;;;;;;4.95;2.72;;;;;;;18.50;86.58;101686.78;5025312;28;20223;-46
2022/08/23 05:39:59;;;;;;;7.78;3.03;;;;;;;18.40;87.42;101688.25;5019839;28;20197;-48
2022/08/23 05:42:26;;;;;;;7.72;2.88;;;;;;;18.43;87.19;101693.53;5022149;28;20180;-47
2022/08/23 05:44:52;;;;;;;5.13;2.38;;;;;;;18.30;87.66;101692.44;5024049;28;20220;-46
2022/08/23 05:47:19;;;;;;;5.25;2.70;;;;;;;18.25;88.44;101691.84;5011895;28;20259;-45
2022/08/23 05:49:54;;;;;;;6.55;2.70;;;;;;;18.09;88.06;101695.41;5025462;28;20215;-45
2022/08/23 05:52:21;;;;;;;6.07;2.22;;;;;;;18.35;87.69;101701.22;5026371;28;20635;-45
2022/08/23 05:54:47;;;;;;;7.20;2.15;;;;;;;18.27;86.85;101701.63;5012165;28;20212;-46
2022/08/23 05:57:36;;;;;;;6.70;2.47;;;;;;;18.63;86.31;101703.22;5011933;28;20196;-46
2022/08/23 06:00:06;;;;;;;6.57;2.45;;;;;;;19.03;85.01;101700.88;5015896;28;20195;-44
2022/08/23 06:02:32;;;;;;;5.28;2.35;;;;;;;19.25;83.17;101705.91;5019195;28;20185;-44
2022/08/23 06:04:58;;;;;;;4.35;2.15;;;;;;;19.37;82.17;101698.81;5016949;28;20212;-45
2022/08/23 06:07:23;;;;;;;5.35;2.45;;;;;;;19.57;82.33;101700.34;5015946;28;20192;-46
2022/08/23 06:09:49;;;;;;;7.05;2.25;;;;;;;20.07;80.74;101704.47;5025607;28;20266;-46
2022/08/23 06:12:15;;;;;;;6.20;2.45;;;;;;;19.85;79.69;101704.06;5025356;28;20187;-46
2022/08/23 06:14:41;;;;;;;6.00;2.40;;;;;;;19.68;79.99;101707.84;5009197;28;20219;-47
2022/08/23 06:17:06;;;;;;;7.45;2.40;;;;;;;19.86;79.94;101706.69;5009085;28;20278;-47
2022/08/23 06:19:32;;;;;;;4.10;1.92;;;;;;;20.27;78.81;101707.72;5011721;28;20250;-47
2022/08/23 06:22:18;;;;;;;4.93;1.98;;;;;;;20.33;77.18;101705.50;5014685;28;20195;-45
2022/08/23 06:24:43;;;;;;;5.40;1.80;;;;;;;20.31;76.99;101709.25;5015684;28;20219;-46
2022/08/23 06:27:14;;;;;;;3.65;2.03;;;;;;;20.52;76.15;101709.72;5018440;28;20257;-46
2022/08/23 06:29:41;;;;;;;5.13;2.20;;;;;;;20.66;75.09;101706.09;5020621;28;20255;-45
2022/08/23 06:32:25;;;;;;;2.75;1.85;;;;;;;20.35;75.25;101703.50;5022959;28;20559;-44
2022/08/23 06:35:10;;;;;;;6.15;2.17;;;;;;;20.09;75.24;101713.38;5017574;28;20302;-43
2022/08/23 06:37:48;;;;;;;6.60;2.05;;;;;;;20.00;75.88;101723.97;5009319;28;20239;-50
2022/08/23 06:40:34;;;;;;;5.65;2.05;;;;;;;20.00;76.20;101721.25;5010767;28;20276;-48
2022/08/23 06:43:26;;;;;;;5.53;2.10;;;;;;;19.66;76.77;101726.94;5010606;28;20193;-44
2022/08/23 06:46:24;;;;;;;4.05;2.15;;;;;;;19.72;77.19;101721.16;5017188;28;20216;-48
2022/08/23 06:48:50;;;;;;;5.47;1.98;;;;;;;19.66;76.86;101728.81;5030078;28;20176;-44
2022/08/23 06:51:25;;;;;;;3.50;1.98;;;;;;;19.61;76.43;101729.06;5028798;28;20553;-45
2022/08/23 06:53:56;;;;;;;3.05;1.67;;;;;;;19.58;76.28;101729.25;5030090;28;20211;-44
2022/08/23 06:56:41;;;;;;;5.70;1.90;;;;;;;19.52;76.33;101714.19;5033623;28;20168;-44
2022/08/23 06:59:13;;;;;;;4.80;2.00;;;;;;;19.53;76.05;101718.69;5032337;28;20255;-43
2022/08/23 07:02:06;;;;;;;2.80;1.55;;;;;;;19.44;75.33;101732.84;5034072;28;20240;-43
2022/08/23 07:04:57;;;;;;;2.58;1.45;;;;;;;19.52;75.31;101729.63;5033051;28;20211;-43
2022/08/23 07:07:36;;;;;;;4.35;1.83;;;;;;;19.59;74.93;101711.09;5033514;28;20160;-46
2022/08/23 07:10:04;;;;;;;6.20;1.60;;;;;;;19.54;74.61;101719.53;5031776;28;20299;-47
2022/08/23 07:12:30;;;;;;;3.03;1.83;;;;;;;19.68;74.18;101725.00;5032036;28;20210;-47
2022/08/23 07:14:55;;;;;;;5.93;2.05;;;;;;;19.70;74.42;101716.78;5033136;28;20196;-43
2022/08/23 07:17:21;;;;;;;4.00;1.73;;;;;;;19.59;73.76;101725.59;5033593;28;20550;-45
2022/08/23 07:19:48;;;;;;;4.40;1.80;;;;;;;19.79;74.36;101715.31;5031862;28;20180;-44
2022/08/23 07:22:14;;;;;;;5.05;1.70;;;;;;;19.78;73.70;101730.75;5031602;28;20179;-43
2022/08/23 07:24:41;;;;;;;3.00;1.90;;;;;;;19.96;73.91;101723.28;5033362;28;20195;-45
2022/08/23 07:27:08;;;;;;;3.17;1.50;;;;;;;20.04;73.18;101728.25;5031548;28;20180;-45
2022/08/23 07:29:42;;;;;;;3.15;1.65;;;;;;;20.02;73.38;101736.50;5030802;28;20178;-43
2022/08/23 07:32:08;;;;;;;3.35;1.80;;;;;;;20.12;73.06;101739.53;5031568;28;20643;-44
2022/08/23 07:34:35;;;;;;;4.38;1.80;;;;;;;20.03;72.75;101730.09;5029960;28;20198;-47
2022/08/23 07:37:02;;;;;;;3.35;1.80;;;;;;;20.15;72.46;101737.47;5031158;28;20167;-45
2022/08/23 07:39:30;;;;;;;3.90;1.73;;;;;;;20.14;73.01;101737.59;5030193;28;20302;-44
2022/08/23 07:41:59;;;;;;;3.95;2.00;;;;;;;20.19;72.92;101731.84;5016216;28;20188;-45
2022/08/23 07:44:25;;;;;;;3.65;1.98;;;;;;;20.23;72.25;101733.41;5011298;28;20267;-43
2022/08/23 07:46:50;;;;;;;4.70;2.00;;;;;;;20.22;71.86;101729.78;5013182;28;20206;-46
2022/08/23 07:49:16;;;;;;;5.57;1.75;;;;;;;20.24;72.07;101735.13;5011391;28;20187;-47
2022/08/23 07:51:47;;;;;;;4.65;1.77;;;;;;;20.32;72.06;101733.66;5011463;28;20209;-44
2022/08/23 07:54:14;;;;;;;4.97;1.85;;;;;;;20.38;71.11;101729.69;5013185;28;20215;-43
2022/08/23 07:56:48;;;;;;;6.40;1.95;;;;;;;20.47;70.62;101729.06;5011464;28;20180;-47
2022/08/23 07:59:32;;;;;;;3.17;1.50;;;;;;;20.53;70.45;101733.22;5012937;28;20693;-47
2022/08/23 08:02:18;;;;;;;4.97;1.60;;;;;;;20.55;69.88;101737.63;5012529;28;20615;-46
2022/08/23 08:04:43;;;;;;;4.07;1.80;;;;;;;20.70;69.50;101743.03;5011289;28;20504;-44
2022/08/23 08:07:10;;;;;;;6.50;2.10;;;;;;;20.82;68.95;101735.91;5010715;28;20204;-49
2022/08/23 08:09:38;;;;;;;2.42;1.40;;;;;;;20.98;68.45;101739.34;5027688;28;20204;-47
2022/08/23 08:12:04;;;;;;;3.70;1.80;;;;;;;21.03;68.24;101737.16;5011037;28;20263;-45
2022/08/23 08:14:30;;;;;;;7.15;1.40;;;;;;;21.26;68.89;101742.91;5011173;28;20196;-50
2022/08/23 08:16:59;;;;;;;5.75;1.95;;;;;;;21.23;67.96;101744.00;5027503;28;20177;-45
2022/08/23 08:19:44;;;;;;;4.95;1.70;;;;;;;21.27;67.48;101740.06;5012396;28;20194;-45
2022/08/23 08:22:28;;;;;;;6.00;1.60;;;;;;;21.36;67.56;101734.00;5012314;28;20643;-45
2022/08/23 08:25:06;;;;;;;3.10;1.60;;;;;;;21.48;67.45;101735.03;5011829;28;20223;-44
2022/08/23 08:27:31;;;;;;;7.03;1.80;;;;;;;21.60;67.49;101736.91;5027277;28;20643;-47
2022/08/23 08:29:57;;;;;;;3.42;1.88;;;;;;;21.67;66.49;101736.44;5026875;28;20248;-49
2022/08/23 08:32:22;;;;;;;4.07;1.88;;;;;;;21.73;65.85;101728.69;5017486;28;20836;-47
2022/08/23 08:34:48;;;;;;;4.10;1.67;;;;;;;21.82;65.59;101740.81;5024217;28;20206;-48
2022/08/23 08:37:13;;;;;;;4.47;1.70;;;;;;;21.79;64.79;101738.31;5017819;28;20194;-51
2022/08/23 08:39:44;;;;;;;4.95;1.73;;;;;;;21.94;65.24;101730.88;5025915;28;20188;-47
2022/08/23 08:42:35;;;;;;;4.00;2.00;;;;;;;22.10;65.46;101733.38;5022264;28;20183;-48
2022/08/23 08:45:17;;;;;;;3.03;1.63;;;;;;;22.31;64.67;101730.97;5016161;28;20215;-50
2022/08/23 08:47:52;;;;;;;4.25;1.70;;;;;;;22.94;63.50;101729.00;5023680;28;20187;-48
2022/08/23 08:50:26;;;;;;;5.13;1.95;;;;;;;23.67;61.94;101732.50;5028703;28;20303;-47
2022/08/23 08:52:58;;;;;;;2.90;1.67;;;;;;;23.83;59.47;101730.28;5020203;28;20187;-46
2022/08/23 08:55:50;;;;;;;3.17;1.77;;;;;;;24.03;59.55;101728.69;5021711;28;20191;-50
2022/08/23 08:58:38;;;;;;;3.83;1.58;;;;;;;23.92;59.01;101729.59;5020822;28;20187;-51
2022/08/23 09:01:04;;;;;;;3.22;1.80;;;;;;;24.01;58.77;101731.56;5019641;28;20188;-48
2022/08/23 09:03:33;;;;;;;4.18;1.98;;;;;;;23.80;57.53;101727.81;5025650;28;20188;-47
2022/08/23 09:06:24;;;;;;;5.38;1.60;;;;;;;24.04;56.90;101735.91;5025820;28;20245;-48
2022/08/23 09:09:03;;;;;;;5.43;1.90;;;;;;;24.13;56.25;101748.84;5021146;28;20575;-49
2022/08/23 09:11:31;;;;;;;3.97;1.50;;;;;;;24.11;55.85;101747.25;5013319;28;20204;-48
2022/08/23 09:14:23;;;;;;;6.78;1.88;;;;;;;24.20;56.25;101736.41;5018122;28;20206;-46
2022/08/23 09:16:52;;;;;;;4.35;1.60;;;;;;;24.34;55.17;101738.03;5026873;28;20188;-51
2022/08/23 09:19:21;;;;;;;5.63;1.98;;;;;;;23.80;55.96;101747.84;5002651;28;20191;-48
2022/08/23 09:21:53;;;;;;;4.07;1.60;;;;;;;23.62;57.41;101738.34;5021175;28;20179;-50
2022/08/23 09:24:19;;;;;;;3.40;1.70;;;;;;;24.11;57.80;101739.88;5020261;28;20313;-48
2022/08/23 09:26:56;;;;;;;2.83;1.42;;;;;;;23.77;57.58;101750.84;5015855;28;20187;-47
2022/08/23 09:29:33;;;;;;;5.65;1.70;;;;;;;23.94;56.80;101740.38;5020694;28;20179;-49
2022/08/23 09:32:02;;;;;;;4.45;1.70;;;;;;;24.44;57.32;101718.94;5025468;28;20324;-49
2022/08/23 09:34:36;;;;;;;4.15;1.63;;;;;;;24.77;54.57;101726.25;5013517;28;20306;-47
2022/08/23 09:37:22;;;;;;;3.15;1.58;;;;;;;24.43;55.82;101725.44;5015823;28;20188;-48
2022/08/23 09:39:51;;;;;;;3.33;1.58;;;;;;;24.44;54.78;101729.91;5025664;28;20207;-49
2022/08/23 09:42:38;;;;;;;3.60;1.70;;;;;;;24.59;55.35;101728.66;5025012;28;20183;-47
2022/08/23 09:45:28;;;;;;;2.90;1.30;;;;;;;24.68;53.86;101719.66;5020383;28;20211;-48
2022/08/23 09:47:53;;;;;;;3.47;1.75;;;;;;;24.72;54.71;101716.69;5022619;28;20231;-48
2022/08/23 09:50:21;;;;;;;3.80;1.65;;;;;;;24.84;52.30;101712.91;5022929;28;20223;-49
2022/08/23 09:52:47;;;;;;;2.88;1.50;;;;;;;24.86;52.16;101710.88;5019506;28;20675;-49
2022/08/23 09:55:48;;;;;;;3.42;1.10;;;;;;;25.78;51.76;101705.69;5023655;28;20220;-51
2022/08/23 09:58:35;;;;;;;2.17;1.40;;;;;;;25.26;50.84;101715.75;4982205;28;20203;-47
2022/08/23 10:01:12;;;;;;;4.30;1.70;;;;;;;25.13;51.06;101710.41;5016366;28;20187;-49
2022/08/23 10:03:41;;;;;;;3.42;1.50;;;;;;;25.16;50.23;101712.88;5024687;28;20223;-48
2022/08/23 10:06:33;;;;;;;3.20;1.58;;;;;;;25.54;51.40;101713.31;5021035;28;20180;-50
2022/08/23 10:09:04;;;;;;;4.07;1.42;;;;;;;25.64;50.56;101700.53;5023572;28;20184;-47
2022/08/23 10:11:40;;;;;;;4.65;1.42;;;;;;;25.77;50.29;101703.06;5020098;28;20218;-48
2022/08/23 10:14:08;;;;;;;3.95;1.40;;;;;;;25.70;50.67;101710.97;5020279;28;20691;-47
2022/08/23 10:16:54;;;;;;;3.40;1.42;;;;;;;25.81;48.95;101708.16;5022492;28;20215;-47
2022/08/23 10:19:38;;;;;;;4.55;1.60;;;;;;;25.69;50.41;101711.97;5025834;28;20194;-47
2022/08/23 10:22:23;;;;;;;3.85;1.40;;;;;;;25.78;49.91;101697.44;5009344;28;20191;-47
2022/08/23 10:25:11;;;;;;;4.07;1.88;;;;;;;25.55;49.91;101707.72;5010673;28;20583;-47
2022/08/23 10:31:01;;;;;;;2.65;1.20;;;;;;;25.95;48.98;101703.31;5019502;28;20309;-49
2022/08/23 10:33:42;;;;;;;3.13;1.35;;;;;;;25.88;48.05;101700.25;5029775;28;20677;-49
2022/08/23 10:36:14;;;;;;;4.15;1.20;;;;;;;26.05;48.47;101696.00;5029928;28;20602;-47
2022/08/23 10:38:57;;;;;;;3.95;1.38;;;;;;;25.71;47.90;101712.69;5027032;28;20610;-50
2022/08/23 10:41:42;;;;;;;2.70;1.60;;;;;;;25.48;48.25;101698.28;5031041;28;20686;-47
2022/08/23 10:44:18;;;;;;;7.85;1.60;;;;;;;25.82;48.42;101692.53;5030267;28;20226;-47
2022/08/23 10:46:55;;;;;;;3.15;1.23;;;;;;;25.55;48.65;101702.22;5013554;28;20175;-47
2022/08/23 10:49:24;;;;;;;3.40;1.50;;;;;;;25.38;48.23;101702.81;5013371;28;20206;-47
2022/08/23 10:51:51;;;;;;;2.88;1.50;;;;;;;25.17;48.87;101713.78;5015961;28;20203;-48
2022/08/23 10:54:34;;;;;;;2.95;1.63;;;;;;;25.22;48.84;101703.31;5017355;28;20199;-48
2022/08/23 10:57:05;;;;;;;2.50;1.45;;;;;;;25.66;48.09;101707.63;5037332;28;20187;-46
2022/08/23 10:59:33;;;;;;;3.65;1.40;;;;;;;25.55;47.98;101717.81;5021846;28;20191;-47
2022/08/23 11:02:02;;;;;;;3.20;1.73;;;;;;;25.33;48.92;101713.34;5034510;28;20267;-47
2022/08/23 11:04:45;;;;;;;3.95;1.42;;;;;;;25.34;49.63;101715.06;5029500;28;20261;-46
2022/08/23 11:07:29;;;;;;;2.72;1.30;;;;;;;25.34;49.49;101706.84;5024732;28;20175;-49
2022/08/23 11:10:24;;;;;;;3.97;1.55;;;;;;;25.51;49.29;101699.88;5030163;28;20186;-47
2022/08/23 11:13:21;;;;;;;2.30;1.38;;;;;;;25.72;49.65;101691.63;5028600;28;20215;-48
2022/08/23 11:15:53;;;;;;;2.75;1.38;;;;;;;25.79;50.12;101688.19;5015962;28;20235;-47
2022/08/23 11:18:39;;;;;;;4.45;1.60;;;;;;;25.93;49.91;101692.47;5029692;28;20214;-49
2022/08/23 11:21:17;;;;;;;4.28;1.52;;;;;;;26.09;48.87;101698.34;5030057;28;20171;-48
2022/08/23 11:24:13;;;;;;;3.40;1.30;;;;;;;26.18;49.10;101677.41;5030353;28;20732;-49
2022/08/23 11:26:40;;;;;;;4.75;1.45;;;;;;;26.44;48.33;101686.00;5024182;28;20188;-48
2022/08/23 11:29:06;;;;;;;1.70;1.10;;;;;;;26.23;47.68;101687.97;5017539;28;20195;-48
2022/08/23 11:32:04;;;;;;;6.63;1.40;;;;;;;26.40;48.10;101681.78;5022617;28;20695;-46
2022/08/23 11:34:56;;;;;;;2.42;1.30;;;;;;;26.66;49.02;101686.78;5017311;28;20734;-47
2022/08/23 11:37:26;;;;;;;3.53;1.60;;;;;;;26.16;47.88;101673.94;5021013;28;20195;-47
2022/08/23 11:39:58;;;;;;;4.68;1.83;;;;;;;26.36;47.80;101683.09;5028483;28;20317;-49
2022/08/23 11:42:36;;;;;;;1.75;1.30;;;;;;;26.24;47.70;101665.00;5019175;28;20188;-46
2022/08/23 11:45:20;;;;;;;5.10;1.60;;;;;;;26.15;47.56;101680.44;5018812;28;20297;-47
2022/08/23 11:48:18;;;;;;;3.35;1.38;;;;;;;26.01;47.41;101676.19;5017064;28;20672;-46
2022/08/23 11:50:58;;;;;;;5.53;1.35;;;;;;;25.97;48.16;101685.69;5016302;28;20216;-47
2022/08/23 11:53:23;;;;;;;2.13;1.20;;;;;;;25.61;48.03;101687.97;5029114;28;20720;-47
2022/08/23 11:56:30;;;;;;;5.60;1.35;;;;;;;26.24;47.29;101678.72;5028276;28;20224;-46
2022/08/23 11:59:02;;;;;;;3.00;1.30;;;;;;;26.17;47.75;101678.38;5012779;28;20677;-48